Time;durP1;ratioP1;P1;durP2;ratioP2;P2;SDS_P1;SDS_P2;PMS_P1;PMS_P2;Temp;Humidity;BMP_temperature;BMP_pressure;BME280_temperature;BME280_humidity;BME280_pressure;Samples;Min_cycle;Max_cycle;Signal;HPM_P1;HPM_P2
2023/08/29 00:00:40;;;;;;;2.40;1.52;;;10.30;99.90;;;;;;6285719;22;20015;-84
2023/08/29 00:03:06;;;;;;;2.72;1.60;;;10.30;99.90;;;;;;6285352;22;20790;-83
2023/08/29 00:05:32;;;;;;;2.58;1.67;;;10.30;99.90;;;;;;6261081;22;20125;-84
2023/08/29 00:07:58;;;;;;;3.95;1.85;;;8.80;99.90;;;;;;6260302;22;20022;-85
2023/08/29 00:10:23;;;;;;;7.55;2.30;;;10.20;99.90;;;;;;6260758;22;20017;-85
2023/08/29 00:12:49;;;;;;;3.47;1.63;;;10.20;99.90;;;;;;6285814;22;20026;-84
2023/08/29 00:15:15;;;;;;;2.83;1.65;;;10.20;99.90;;;;;;6260580;22;20019;-84
2023/08/29 00:17:41;;;;;;;2.25;1.00;;;10.20;99.90;;;;;;6286786;22;20019;-84
2023/08/29 00:20:07;;;;;;;2.85;1.23;;;10.20;99.90;;;;;;6287081;22;20023;-85
2023/08/29 00:22:33;;;;;;;3.47;1.20;;;10.10;99.90;;;;;;6260454;22;20042;-84
2023/08/29 00:24:59;;;;;;;2.63;1.30;;;10.10;99.90;;;;;;6285498;22;20019;-84
2023/08/29 00:27:24;;;;;;;2.70;1.40;;;10.10;99.90;;;;;;6261164;22;20015;-84
2023/08/29 00:29:50;;;;;;;3.40;1.77;;;10.10;99.90;;;;;;6260024;22;20011;-84
2023/08/29 00:32:16;;;;;;;2.72;1.60;;;10.10;99.90;;;;;;6261782;22;20015;-84
2023/08/29 00:34:42;;;;;;;4.13;1.67;;;10.00;99.90;;;;;;6261337;22;20022;-84
2023/08/29 00:37:08;;;;;;;2.63;1.50;;;10.00;99.90;;;;;;6260512;22;20075;-85
2023/08/29 00:39:34;;;;;;;1.33;0.77;;;9.90;99.90;;;;;;6258974;22;20023;-85
2023/08/29 00:42:00;;;;;;;1.98;0.30;;;9.10;99.90;;;;;;6260588;22;20019;-85
2023/08/29 00:44:26;;;;;;;1.65;0.60;;;9.90;99.90;;;;;;6260681;22;20073;-85
2023/08/29 00:46:52;;;;;;;1.65;0.80;;;10.20;99.90;;;;;;6259651;22;20011;-85
2023/08/29 00:49:22;;;;;;;4.03;1.23;;;9.90;99.90;;;;;;6260842;22;20017;-85
2023/08/29 00:51:48;;;;;;;2.20;1.50;;;9.80;99.90;;;;;;6261100;22;20084;-84
2023/08/29 00:54:17;;;;;;;0.93;0.40;;;9.80;99.90;;;;;;6260861;22;20023;-84
2023/08/29 00:56:44;;;;;;;4.95;0.60;;;9.80;99.90;;;;;;6260608;22;20026;-84
2023/08/29 00:59:11;;;;;;;4.13;1.00;;;9.80;99.90;;;;;;6262434;22;20019;-84
2023/08/29 01:01:37;;;;;;;2.75;1.00;;;10.30;99.90;;;;;;6262960;22;20431;-84
2023/08/29 01:04:03;;;;;;;2.72;0.90;;;9.70;99.90;;;;;;6263079;22;20100;-84
2023/08/29 01:06:32;;;;;;;6.38;2.30;;;9.80;99.90;;;;;;6263552;22;20114;-84
2023/08/29 01:08:59;;;;;;;3.70;2.50;;;9.80;99.90;;;;;;6263070;22;20155;-84
2023/08/29 01:11:34;;;;;;;5.63;2.63;;;9.80;99.90;;;;;;6262521;22;20019;-83
2023/08/29 01:14:06;;;;;;;5.80;3.13;;;9.80;99.90;;;;;;6262598;22;20023;-83
2023/08/29 01:16:36;;;;;;;6.10;1.75;;;9.80;99.90;;;;;;6262761;22;20019;-84
2023/08/29 01:19:08;;;;;;;3.83;1.73;;;9.80;99.90;;;;;;6285471;22;20097;-83
2023/08/29 01:21:55;;;;;;;5.05;1.10;;;9.70;99.90;;;;;;6260107;22;20015;-84
2023/08/29 01:24:25;;;;;;;3.83;0.90;;;9.70;99.90;;;;;;6263214;22;20015;-84
2023/08/29 01:26:52;;;;;;;2.38;1.13;;;9.70;99.90;;;;;;6263616;22;20041;-83
2023/08/29 01:29:19;;;;;;;2.25;1.25;;;9.70;99.90;;;;;;6264435;22;20049;-83
2023/08/29 01:31:45;;;;;;;4.32;1.48;;;9.70;99.90;;;;;;6289961;22;20026;-83
2023/08/29 01:34:12;;;;;;;8.57;0.93;;;10.20;99.90;;;;;;6263681;22;20762;-83
2023/08/29 01:36:41;;;;;;;2.85;0.90;;;9.60;99.90;;;;;;6263273;22;20096;-83
2023/08/29 01:39:07;;;;;;;3.20;0.50;;;9.60;99.90;;;;;;6262076;22;20738;-82
2023/08/29 01:41:33;;;;;;;4.65;0.75;;;8.90;99.90;;;;;;6289452;22;20027;-83
2023/08/29 01:44:02;;;;;;;4.30;0.63;;;9.50;99.90;;;;;;6263244;22;20047;-83
2023/08/29 01:46:28;;;;;;;18.50;0.90;;;8.10;99.90;;;;;;6288717;22;20018;-82
2023/08/29 01:48:56;;;;;;;12.20;0.80;;;9.50;99.90;;;;;;6288551;22;20015;-83
2023/08/29 01:51:22;;;;;;;9.27;0.73;;;9.50;99.90;;;;;;6262111;22;20043;-83
2023/08/29 01:53:48;;;;;;;3.97;0.85;;;9.50;99.90;;;;;;6262049;22;20015;-83
2023/08/29 01:56:15;;;;;;;1.73;0.70;;;10.10;99.90;;;;;;6262845;22;20050;-82
2023/08/29 01:58:42;;;;;;;1.60;0.60;;;9.40;99.90;;;;;;6262518;22;20015;-82
2023/08/29 02:01:08;;;;;;;2.63;1.00;;;8.10;99.90;;;;;;6262334;22;20011;-82
2023/08/29 02:03:34;;;;;;;3.88;1.70;;;11.70;99.90;;;;;;6261801;22;20011;-82
2023/08/29 02:05:59;;;;;;;5.35;1.88;;;9.30;99.90;;;;;;6262046;22;20015;-82
2023/08/29 02:08:25;;;;;;;4.47;2.80;;;9.30;99.90;;;;;;6262426;22;20015;-82
2023/08/29 02:10:52;;;;;;;3.05;1.60;;;9.90;99.90;;;;;;6262450;22;20011;-82
2023/08/29 02:13:18;;;;;;;3.70;2.22;;;9.20;99.90;;;;;;6261860;22;20098;-83
2023/08/29 02:15:44;;;;;;;5.65;2.05;;;9.30;99.90;;;;;;6263069;22;20521;-82
2023/08/29 02:18:10;;;;;;;6.10;2.78;;;9.60;99.90;;;;;;6263648;22;20371;-81
2023/08/29 02:20:36;;;;;;;5.30;2.13;;;9.20;99.90;;;;;;6264019;22;20015;-82
2023/08/29 02:23:02;;;;;;;23.83;1.10;;;6.90;99.90;;;;;;6263337;22;20073;-82
2023/08/29 02:25:28;;;;;;;0.93;0.20;;;9.30;99.90;;;;;;6264245;22;20388;-82
2023/08/29 02:27:54;;;;;;;1.45;0.20;;;9.30;99.90;;;;;;6263491;22;20047;-82
2023/08/29 02:30:20;;;;;;;0.90;0.30;;;10.60;99.90;;;;;;6264570;22;20018;-82
2023/08/29 02:32:46;;;;;;;5.90;0.30;;;9.20;99.90;;;;;;6266550;22;20015;-82
2023/08/29 02:35:12;;;;;;;3.40;0.43;;;9.20;99.90;;;;;;6267451;22;20121;-82
2023/08/29 02:37:38;;;;;;;4.20;0.55;;;9.40;99.90;;;;;;6292781;22;20048;-82
2023/08/29 02:40:07;;;;;;;1.67;0.47;;;9.30;99.90;;;;;;6266888;22;20046;-82
2023/08/29 02:42:33;;;;;;;2.15;0.30;;;8.00;99.90;;;;;;6267182;22;20526;-82
2023/08/29 02:44:58;;;;;;;1.73;0.68;;;9.20;99.90;;;;;;6295074;22;20523;-82
2023/08/29 02:47:26;;;;;;;1.80;0.80;;;9.10;99.90;;;;;;6273727;22;20015;-82
2023/08/29 02:49:52;;;;;;;2.92;0.80;;;9.10;99.90;;;;;;6273276;22;20061;-82
2023/08/29 02:52:18;;;;;;;4.90;0.77;;;9.10;99.90;;;;;;6268196;22;20378;-83
2023/08/29 02:54:45;;;;;;;1.58;0.68;;;9.10;99.90;;;;;;6268005;22;20054;-83
2023/08/29 02:57:11;;;;;;;3.40;0.88;;;9.30;99.90;;;;;;6265858;22;20057;-83
2023/08/29 02:59:36;;;;;;;2.17;0.68;;;9.00;99.90;;;;;;6264247;22;20506;-83
2023/08/29 03:02:03;;;;;;;2.38;1.00;;;9.00;99.90;;;;;;6289530;22;20529;-83
2023/08/29 03:04:30;;;;;;;3.00;1.55;;;9.00;99.90;;;;;;6289037;22;20092;-82
2023/08/29 03:06:56;;;;;;;7.30;2.50;;;9.00;99.90;;;;;;6263113;22;20011;-82
2023/08/29 03:09:22;;;;;;;5.38;1.70;;;9.00;99.90;;;;;;6261795;22;20017;-82
2023/08/29 03:11:48;;;;;;;3.20;1.30;;;9.10;99.90;;;;;;6258305;22;20072;-82
2023/08/29 03:14:14;;;;;;;2.28;1.10;;;9.60;99.90;;;;;;6288823;22;20103;-82
2023/08/29 03:16:40;;;;;;;3.38;1.30;;;9.00;99.90;;;;;;6263700;22;20097;-82
2023/08/29 03:19:06;;;;;;;6.13;1.70;;;8.80;99.90;;;;;;6262420;22;20103;-82
2023/08/29 03:21:32;;;;;;;2.50;1.20;;;9.00;99.90;;;;;;6288034;22;20430;-83
2023/08/29 03:23:58;;;;;;;4.80;1.55;;;8.90;99.90;;;;;;6261521;22;20067;-83
2023/08/29 03:26:24;;;;;;;3.17;1.20;;;8.90;99.90;;;;;;6261897;22;20011;-83
2023/08/29 03:28:49;;;;;;;3.88;1.10;;;9.00;99.90;;;;;;6261380;22;20023;-82
2023/08/29 03:31:16;;;;;;;29.75;1.77;;;8.90;99.90;;;;;;6261955;22;20015;-83
2023/08/29 03:33:44;;;;;;;5.65;0.75;;;9.20;99.90;;;;;;6262343;22;20011;-83
2023/08/29 03:36:10;;;;;;;18.70;0.80;;;8.90;99.90;;;;;;6262182;22;20022;-83
2023/08/29 03:38:38;;;;;;;10.77;0.60;;;8.80;99.90;;;;;;6285844;22;20075;-83
2023/08/29 03:41:05;;;;;;;13.48;0.90;;;8.80;99.90;;;;;;6261220;22;20019;-83
2023/08/29 03:43:32;;;;;;;29.38;1.40;;;8.80;99.90;;;;;;6261961;22;20015;-84
2023/08/29 03:46:02;;;;;;;5.25;0.98;;;9.00;99.90;;;;;;6261887;22;20026;-83
2023/08/29 03:48:28;;;;;;;8.43;0.90;;;8.80;99.90;;;;;;6287456;22;20011;-84
2023/08/29 03:50:54;;;;;;;31.00;1.17;;;8.80;99.90;;;;;;6263169;22;20011;-84
2023/08/29 03:53:21;;;;;;;39.20;1.55;;;8.70;99.90;;;;;;6264716;22;20480;-83
2023/08/29 03:55:48;;;;;;;24.65;1.35;;;8.70;99.90;;;;;;6263698;22;20019;-84
2023/08/29 03:58:14;;;;;;;16.20;1.30;;;8.60;99.90;;;;;;6263729;22;20073;-84
2023/08/29 04:00:43;;;;;;;11.88;1.05;;;8.60;99.90;;;;;;6262867;22;20451;-84
2023/08/29 04:03:09;;;;;;;3.13;0.90;;;8.90;99.90;;;;;;6263238;22;20658;-84
2023/08/29 04:05:36;;;;;;;24.85;1.60;;;8.60;99.90;;;;;;6263334;22;20015;-84
2023/08/29 04:08:06;;;;;;;3.40;0.68;;;9.60;99.90;;;;;;6261792;22;20405;-84
2023/08/29 04:10:42;;;;;;;2.35;0.43;;;8.50;99.90;;;;;;6261009;22;20084;-84
2023/08/29 04:13:08;;;;;;;1.88;0.30;;;8.50;99.90;;;;;;6260820;22;20674;-83
2023/08/29 04:15:34;;;;;;;5.93;0.40;;;8.70;99.90;;;;;;6260580;22;20049;-83
2023/08/29 04:18:00;;;;;;;26.10;0.80;;;8.40;99.90;;;;;;6261190;22;20575;-84
2023/08/29 04:20:27;;;;;;;9.27;0.40;;;9.30;99.90;;;;;;6261440;22;20019;-85
2023/08/29 04:22:53;;;;;;;0.70;0.22;;;8.40;99.90;;;;;;6261340;22;20019;-84
2023/08/29 04:25:19;;;;;;;1.77;0.50;;;8.40;99.90;;;;;;6260696;22;20019;-84
2023/08/29 04:27:46;;;;;;;2.20;0.75;;;8.40;99.90;;;;;;6260201;22;20161;-84
2023/08/29 04:30:12;;;;;;;2.90;0.68;;;9.40;99.90;;;;;;6286206;22;20596;-84
2023/08/29 04:32:38;;;;;;;1.40;0.80;;;8.30;99.90;;;;;;6261751;22;20050;-84
2023/08/29 04:35:06;;;;;;;2.17;0.77;;;8.50;99.90;;;;;;6260380;22;20019;-84
2023/08/29 04:37:32;;;;;;;2.50;0.95;;;8.30;99.90;;;;;;6255124;22;20015;-85
2023/08/29 04:39:58;;;;;;;1.25;0.50;;;8.30;99.90;;;;;;6261712;22;20034;-84
2023/08/29 04:42:24;;;;;;;4.28;0.60;;;8.30;99.90;;;;;;6261658;22;20024;-84
2023/08/29 04:44:51;;;;;;;2.67;0.50;;;8.20;99.90;;;;;;6260826;22;20114;-84
2023/08/29 04:47:16;;;;;;;4.90;0.95;;;8.20;99.90;;;;;;6261605;22;20636;-83
2023/08/29 04:49:42;;;;;;;6.07;0.77;;;8.30;99.90;;;;;;6261399;22;20022;-83
2023/08/29 04:52:08;;;;;;;2.97;1.20;;;8.90;99.90;;;;;;6261128;22;20016;-83
2023/08/29 04:54:34;;;;;;;5.45;0.75;;;8.30;99.90;;;;;;6261351;22;20019;-83
2023/08/29 04:56:59;;;;;;;5.88;1.25;;;8.20;99.90;;;;;;6261565;22;20389;-84
2023/08/29 04:59:25;;;;;;;30.63;1.55;;;6.10;99.90;;;;;;6260710;22;20804;-83
2023/08/29 05:01:51;;;;;;;57.78;1.75;;;8.60;99.90;;;;;;6261139;22;20016;-84
2023/08/29 05:04:17;;;;;;;34.13;1.02;;;8.40;99.90;;;;;;6260956;22;20064;-84
2023/08/29 05:06:43;;;;;;;19.50;0.70;;;8.40;99.90;;;;;;6261689;22;20100;-84
2023/08/29 05:09:09;;;;;;;53.70;1.35;;;8.40;99.90;;;;;;6286437;22;20866;-83
2023/08/29 05:11:35;;;;;;;40.25;0.75;;;8.50;99.90;;;;;;6259858;22;20015;-84
2023/08/29 05:14:01;;;;;;;13.50;0.50;;;8.50;99.90;;;;;;6260552;22;20015;-83
2023/08/29 05:16:26;;;;;;;3.08;0.40;;;8.50;99.90;;;;;;6258878;22;20023;-83
2023/08/29 05:18:52;;;;;;;2.40;0.40;;;8.50;99.90;;;;;;6259230;22;20026;-84
2023/08/29 05:21:18;;;;;;;1.42;0.50;;;8.60;99.90;;;;;;6259576;22;20019;-84
2023/08/29 05:23:43;;;;;;;2.35;0.80;;;9.60;99.90;;;;;;6260227;22;20018;-83
2023/08/29 05:26:09;;;;;;;1.90;0.80;;;8.70;99.90;;;;;;6258524;22;20344;-83
2023/08/29 05:28:35;;;;;;;1.80;0.77;;;8.70;99.90;;;;;;6258572;22;20019;-84
2023/08/29 05:31:01;;;;;;;2.60;0.73;;;8.80;99.90;;;;;;6259857;22;20484;-84
2023/08/29 05:33:27;;;;;;;1.98;0.82;;;8.90;99.90;;;;;;6260795;22;20092;-84
2023/08/29 05:35:52;;;;;;;3.80;1.17;;;10.30;99.90;;;;;;6262237;22;20015;-83
2023/08/29 05:38:18;;;;;;;6.13;0.60;;;9.10;99.90;;;;;;6260525;22;20475;-84
2023/08/29 05:40:44;;;;;;;3.00;0.43;;;8.90;99.90;;;;;;6261162;22;20019;-84
2023/08/29 05:43:10;;;;;;;2.58;0.40;;;9.30;99.90;;;;;;6260894;22;20049;-84
2023/08/29 05:45:36;;;;;;;8.48;0.40;;;9.20;99.90;;;;;;6261648;22;20023;-84
2023/08/29 05:48:01;;;;;;;2.88;0.30;;;9.30;99.90;;;;;;6264176;22;20018;-84
2023/08/29 05:50:27;;;;;;;2.42;0.43;;;9.30;99.90;;;;;;6263235;22;20347;-84
2023/08/29 05:52:53;;;;;;;1.55;0.30;;;9.40;99.90;;;;;;6288292;22;20250;-83
2023/08/29 05:55:18;;;;;;;1.27;0.40;;;9.50;99.90;;;;;;6265124;22;20023;-84
2023/08/29 05:57:47;;;;;;;2.53;0.30;;;9.50;99.90;;;;;;6264111;22;20350;-84
2023/08/29 06:00:14;;;;;;;2.85;0.40;;;7.20;99.90;;;;;;6288250;22;20014;-84
2023/08/29 06:02:40;;;;;;;3.55;0.40;;;9.70;99.90;;;;;;6257871;22;20556;-84
2023/08/29 06:05:07;;;;;;;2.88;1.00;;;9.90;99.90;;;;;;6263167;22;20019;-85
2023/08/29 06:07:33;;;;;;;2.50;0.60;;;9.90;99.90;;;;;;6264829;22;20022;-84
2023/08/29 06:09:59;;;;;;;1.90;0.60;;;10.10;99.90;;;;;;6288637;22;20094;-84
2023/08/29 06:12:25;;;;;;;2.67;0.50;;;10.40;99.90;;;;;;6261949;22;20026;-83
2023/08/29 06:14:51;;;;;;;1.80;0.80;;;10.50;99.90;;;;;;6261395;22;20026;-84
2023/08/29 06:17:17;;;;;;;1.90;0.90;;;10.80;99.90;;;;;;6261278;22;20124;-85
2023/08/29 06:19:43;;;;;;;2.28;1.00;;;10.40;99.90;;;;;;6287226;22;20015;-84
2023/08/29 06:22:08;;;;;;;2.85;0.90;;;12.20;99.90;;;;;;6264235;22;20015;-84
2023/08/29 06:24:34;;;;;;;3.35;1.10;;;10.90;99.90;;;;;;6264276;22;20019;-84
2023/08/29 06:27:00;;;;;;;3.58;1.08;;;12.70;99.90;;;;;;6263550;22;20043;-83
2023/08/29 06:29:28;;;;;;;1.80;0.80;;;14.90;99.90;;;;;;6264087;22;20015;-84
2023/08/29 06:32:03;;;;;;;5.20;1.48;;;12.70;99.90;;;;;;6262993;22;20892;-84
2023/08/29 06:34:29;;;;;;;2.10;1.33;;;15.40;99.90;;;;;;6261829;22;20475;-85
2023/08/29 06:36:55;;;;;;;3.47;2.00;;;17.60;99.90;;;;;;6290055;22;20022;-85
2023/08/29 06:39:21;;;;;;;4.30;1.90;;;16.60;99.90;;;;;;6265826;22;20019;-84
2023/08/29 06:41:47;;;;;;;3.58;1.50;;;16.80;99.90;;;;;;6264238;22;20102;-84
2023/08/29 06:44:12;;;;;;;3.15;1.70;;;17.40;99.90;;;;;;6264831;22;20122;-84
2023/08/29 06:46:38;;;;;;;2.25;1.27;;;17.80;99.90;;;;;;6263278;22;20454;-84
2023/08/29 06:49:07;;;;;;;3.95;1.38;;;19.00;99.90;;;;;;6262477;22;20094;-84
2023/08/29 06:51:34;;;;;;;4.35;1.42;;;18.90;99.90;;;;;;6286657;22;20011;-84
2023/08/29 06:54:00;;;;;;;1.95;1.00;;;17.10;99.90;;;;;;6260697;22;20025;-84
2023/08/29 06:56:26;;;;;;;2.47;1.00;;;19.40;99.90;;;;;;6261544;22;20488;-84
2023/08/29 06:58:52;;;;;;;4.05;1.05;;;20.00;99.90;;;;;;6255243;22;20015;-85
2023/08/29 07:01:18;;;;;;;2.60;0.95;;;21.00;99.90;;;;;;6260266;22;20015;-85
2023/08/29 07:03:44;;;;;;;2.67;1.02;;;22.00;99.90;;;;;;6261141;22;20011;-85
2023/08/29 07:06:10;;;;;;;3.88;0.90;;;22.70;99.90;;;;;;6260511;22;20011;-85
2023/08/29 07:08:37;;;;;;;1.95;0.88;;;22.70;99.90;;;;;;6258155;22;20049;-84
2023/08/29 07:11:04;;;;;;;3.15;0.85;;;20.60;99.90;;;;;;6258267;22;20115;-84
2023/08/29 07:13:29;;;;;;;2.17;0.65;;;21.10;99.90;;;;;;6259173;22;20015;-85
2023/08/29 07:15:55;;;;;;;2.65;1.02;;;22.30;99.90;;;;;;6259323;22;20073;-85
2023/08/29 07:18:24;;;;;;;2.33;0.73;;;20.30;99.90;;;;;;6259866;22;20084;-85
2023/08/29 07:20:50;;;;;;;3.60;1.08;;;18.80;99.90;;;;;;6259768;22;20265;-84
2023/08/29 07:23:16;;;;;;;3.35;0.75;;;20.50;99.90;;;;;;6260323;22;20665;-84
2023/08/29 07:25:46;;;;;;;4.68;0.60;;;20.40;99.90;;;;;;6260093;22;20021;-83
2023/08/29 07:28:16;;;;;;;3.58;0.70;;;20.10;99.90;;;;;;6259063;22;20615;-84
2023/08/29 07:30:47;;;;;;;2.17;0.50;;;19.80;99.90;;;;;;6259654;22;20389;-85
2023/08/29 07:33:13;;;;;;;2.25;0.60;;;19.50;99.90;;;;;;6260042;22;20061;-84
2023/08/29 07:35:41;;;;;;;1.50;0.32;;;19.70;99.90;;;;;;6259307;22;20114;-83
2023/08/29 07:38:07;;;;;;;2.22;0.40;;;19.40;99.90;;;;;;6259310;22;20239;-84
2023/08/29 07:40:34;;;;;;;2.50;0.40;;;19.30;99.90;;;;;;6257655;22;20023;-84
2023/08/29 07:43:05;;;;;;;2.65;0.50;;;19.20;99.90;;;;;;6257502;22;20026;-83
2023/08/29 07:45:32;;;;;;;1.23;0.20;;;19.30;99.90;;;;;;6257792;22;20054;-84
2023/08/29 07:47:58;;;;;;;1.90;0.22;;;19.30;99.90;;;;;;6257043;22;20015;-82
2023/08/29 07:50:25;;;;;;;3.75;0.40;;;19.30;99.90;;;;;;6257103;22;20011;-82
2023/08/29 07:52:51;;;;;;;1.65;0.10;;;19.40;99.90;;;;;;6257582;22;20069;-83
2023/08/29 07:55:16;;;;;;;1.92;0.10;;;19.40;99.90;;;;;;6259578;22;20027;-84
2023/08/29 07:57:43;;;;;;;0.50;0.10;;;19.40;99.90;;;;;;6259862;22;20462;-85
2023/08/29 08:00:12;;;;;;;1.42;0.10;;;19.50;99.90;;;;;;6261096;22;20056;-84
2023/08/29 08:02:38;;;;;;;1.55;0.10;;;19.60;99.90;;;;;;6261994;22;20096;-84
2023/08/29 08:05:11;;;;;;;2.65;0.20;;;20.00;99.90;;;;;;6263130;22;20074;-85
2023/08/29 08:07:41;;;;;;;1.95;0.17;;;20.50;99.90;;;;;;6262103;22;20015;-84
2023/08/29 08:10:08;;;;;;;0.43;0.10;;;20.40;99.90;;;;;;6286802;22;20114;-85
2023/08/29 08:12:35;;;;;;;1.25;0.10;;;20.70;99.90;;;;;;6259986;22;20015;-84
2023/08/29 08:15:04;;;;;;;0.88;0.10;;;21.10;99.90;;;;;;6259009;22;20098;-87
2023/08/29 08:17:30;;;;;;;1.95;0.20;;;21.90;99.90;;;;;;6260448;22;20094;-86
2023/08/29 08:19:56;;;;;;;2.55;0.68;;;22.40;99.90;;;;;;6285731;22;20019;-86
2023/08/29 08:22:22;;;;;;;1.42;0.10;;;22.80;99.90;;;;;;6260209;22;20026;-87
2023/08/29 08:24:48;;;;;;;3.90;0.10;;;23.20;99.90;;;;;;6261174;22;20015;-87
2023/08/29 08:27:14;;;;;;;1.75;0.05;;;23.60;99.90;;;;;;6260653;22;20118;-86
2023/08/29 08:29:40;;;;;;;2.08;0.10;;;24.10;99.90;;;;;;6260295;22;20118;-86
2023/08/29 08:32:05;;;;;;;1.40;0.10;;;24.40;99.20;;;;;;6256431;22;20026;-88
2023/08/29 08:34:31;;;;;;;1.77;0.30;;;24.40;98.40;;;;;;6288647;22;20050;-89
2023/08/29 08:36:57;;;;;;;1.05;0.10;;;23.20;98.60;;;;;;6264162;22;20022;-88
2023/08/29 08:39:23;;;;;;;2.35;0.10;;;24.90;98.20;;;;;;6261179;22;20023;-90
2023/08/29 08:41:50;;;;;;;1.65;0.10;;;24.70;96.60;;;;;;6260334;22;20082;-90
2023/08/29 08:44:17;;;;;;;1.25;0.05;;;24.80;96.30;;;;;;6260955;22;20011;-89
2023/08/29 08:46:43;;;;;;;2.20;0.20;;;25.00;95.90;;;;;;6262574;22;20018;-89
2023/08/29 08:49:10;;;;;;;0.52;0.00;;;25.20;95.20;;;;;;6265197;22;20011;-90
2023/08/29 08:51:39;;;;;;;2.03;0.10;;;25.20;94.60;;;;;;6267016;22;20022;-90
2023/08/29 08:54:09;;;;;;;2.22;0.10;;;25.20;94.30;;;;;;6267016;22;20051;-90
2023/08/29 08:56:37;;;;;;;0.85;0.10;;;25.10;94.10;;;;;;6266445;22;20011;-90
2023/08/29 08:59:05;;;;;;;2.05;0.10;;;25.00;93.90;;;;;;6267554;22;20359;-90
2023/08/29 09:01:34;;;;;;;1.17;0.10;;;24.90;93.70;;;;;;6268996;22;20548;-89
2023/08/29 09:04:00;;;;;;;1.58;0.10;;;24.80;93.90;;;;;;6280371;22;20015;-89
2023/08/29 09:06:26;;;;;;;0.43;0.00;;;25.20;94.60;;;;;;6281012;22;20012;-87
2023/08/29 09:08:55;;;;;;;1.13;0.10;;;25.40;94.90;;;;;;6279608;22;20031;-89
2023/08/29 09:11:21;;;;;;;0.80;0.10;;;25.00;93.30;;;;;;6265862;22;20022;-90
2023/08/29 09:13:48;;;;;;;1.90;0.47;;;25.20;93.10;;;;;;6293277;22;20015;-91
2023/08/29 09:16:16;;;;;;;1.40;0.10;;;25.40;92.80;;;;;;6267777;22;20050;-89
2023/08/29 09:18:49;;;;;;;0.55;0.10;;;25.60;91.50;;;;;;6290364;22;20016;-88
2023/08/29 09:21:24;;;;;;;0.32;0.10;;;25.70;92.00;;;;;;6293550;22;20043;-89
2023/08/29 09:23:50;;;;;;;0.75;0.10;;;25.60;91.50;;;;;;6267099;22;20478;-88
2023/08/29 09:26:18;;;;;;;1.17;0.10;;;26.10;92.90;;;;;;6266197;22;20497;-90
2023/08/29 09:28:47;;;;;;;0.63;0.20;;;25.90;92.60;;;;;;6268512;22;20086;-90
2023/08/29 09:31:12;;;;;;;0.80;0.10;;;25.40;91.20;;;;;;6267524;22;20019;-89
2023/08/29 09:33:39;;;;;;;0.80;0.35;;;25.40;90.50;;;;;;6267167;22;20068;-91
2023/08/29 09:36:05;;;;;;;1.73;0.10;;;25.40;89.70;;;;;;6267517;22;20049;-90
2023/08/29 09:38:35;;;;;;;1.73;0.17;;;25.50;90.00;;;;;;6266789;22;20346;-89
2023/08/29 09:41:01;;;;;;;1.55;0.20;;;25.50;90.10;;;;;;6266280;22;20023;-88
2023/08/29 09:43:30;;;;;;;1.92;0.10;;;25.70;90.20;;;;;;6267361;22;20019;-91
2023/08/29 09:45:59;;;;;;;2.17;0.10;;;25.70;89.80;;;;;;6267223;22;20014;-89
2023/08/29 09:48:25;;;;;;;1.48;0.20;;;25.90;88.90;;;;;;6263994;22;20011;-88
2023/08/29 09:50:55;;;;;;;1.98;0.10;;;27.30;90.50;;;;;;6267257;22;20665;-89
2023/08/29 09:53:28;;;;;;;1.10;0.10;;;26.20;89.80;;;;;;6268270;22;20019;-90
2023/08/29 09:56:08;;;;;;;2.13;0.10;;;26.90;89.40;;;;;;6267070;22;20418;-90
2023/08/29 09:58:37;;;;;;;1.02;0.20;;;25.80;87.40;;;;;;6267929;22;20018;-93
2023/08/29 10:01:05;;;;;;;2.10;0.10;;;25.50;87.40;;;;;;6265416;22;20015;-88
2023/08/29 10:03:31;;;;;;;1.70;0.20;;;25.10;86.50;;;;;;6268155;22;20076;-92
2023/08/29 10:06:01;;;;;;;1.83;0.10;;;24.70;86.40;;;;;;6270927;22;20019;-92
2023/08/29 10:08:33;;;;;;;1.27;0.10;;;24.60;88.60;;;;;;6295221;22;20011;-93
2023/08/29 10:11:00;;;;;;;0.75;0.10;;;24.20;88.50;;;;;;6269322;22;20431;-89
2023/08/29 10:13:27;;;;;;;0.93;0.10;;;24.00;89.80;;;;;;6266227;22;20018;-89
2023/08/29 10:15:54;;;;;;;0.85;0.10;;;23.80;90.20;;;;;;6269049;22;20058;-90
2023/08/29 10:18:20;;;;;;;0.82;0.05;;;23.50;90.30;;;;;;6271644;22;20106;-91
2023/08/29 10:20:48;;;;;;;1.27;0.30;;;23.40;90.40;;;;;;6271621;22;20208;-88
2023/08/29 10:23:16;;;;;;;2.10;0.10;;;23.30;90.50;;;;;;6267070;22;20462;-87
2023/08/29 10:25:43;;;;;;;0.65;0.20;;;23.20;90.30;;;;;;6292672;22;20015;-88
2023/08/29 10:28:11;;;;;;;1.02;0.20;;;20.50;90.20;;;;;;6266704;22;20022;-89
2023/08/29 10:30:42;;;;;;;1.75;0.20;;;22.80;91.40;;;;;;6265846;22;20756;-87
2023/08/29 10:33:08;;;;;;;2.55;0.10;;;22.60;92.10;;;;;;6265299;22;20019;-87
2023/08/29 10:35:34;;;;;;;1.05;0.10;;;22.30;92.30;;;;;;6289193;22;20386;-87
2023/08/29 10:38:02;;;;;;;2.83;0.65;;;19.60;91.90;;;;;;6262720;22;20026;-87
2023/08/29 10:40:38;;;;;;;1.60;0.10;;;21.80;92.90;;;;;;6264011;22;20061;-87
2023/08/29 10:43:17;;;;;;;1.20;0.15;;;22.30;93.30;;;;;;6259224;22;20022;-88
2023/08/29 10:45:56;;;;;;;2.22;0.10;;;21.30;93.60;;;;;;6264142;22;20029;-87
2023/08/29 10:48:44;;;;;;;0.40;0.05;;;21.10;94.10;;;;;;6261810;22;20100;-88
2023/08/29 10:51:15;;;;;;;1.08;0.17;;;21.30;94.80;;;;;;6231219;22;20098;-88
2023/08/29 10:53:49;;;;;;;1.47;0.10;;;21.30;95.30;;;;;;6262040;22;20019;-87
2023/08/29 10:56:17;;;;;;;1.65;0.20;;;21.00;96.00;;;;;;6261289;22;20807;-87
2023/08/29 10:58:45;;;;;;;3.40;0.20;;;20.50;95.70;;;;;;6261494;22;20053;-87
2023/08/29 11:01:28;;;;;;;2.45;0.20;;;18.30;95.30;;;;;;6262891;22;20018;-87
2023/08/29 11:03:55;;;;;;;0.50;0.10;;;20.50;96.10;;;;;;6261076;22;20558;-88
2023/08/29 11:06:23;;;;;;;1.65;0.30;;;20.40;96.70;;;;;;6261840;22;20038;-88
2023/08/29 11:08:49;;;;;;;1.40;0.28;;;20.40;97.20;;;;;;6260519;22;20030;-87
2023/08/29 11:11:22;;;;;;;2.50;0.10;;;20.40;97.30;;;;;;6261324;22;20023;-88
2023/08/29 11:13:55;;;;;;;1.88;0.20;;;20.40;97.40;;;;;;6261329;22;20495;-88
2023/08/29 11:16:21;;;;;;;1.95;0.10;;;20.50;97.00;;;;;;6261351;22;20021;-88
2023/08/29 11:18:47;;;;;;;0.63;0.10;;;20.40;97.70;;;;;;6261858;22;20385;-88
2023/08/29 11:21:19;;;;;;;1.02;0.10;;;20.80;98.20;;;;;;6287059;22;20093;-88
2023/08/29 11:23:45;;;;;;;;;;;20.60;97.70;;;;;;6262407;22;20019;-88
2023/08/29 11:26:10;;;;;;;1.75;0.20;;;20.70;97.40;;;;;;6262797;22;20483;-89
2023/08/29 11:28:42;;;;;;;1.70;0.15;;;21.00;97.60;;;;;;6263487;22;20073;-89
2023/08/29 11:31:08;;;;;;;1.67;0.20;;;21.30;97.50;;;;;;6262703;22;20011;-89
2023/08/29 11:33:36;;;;;;;1.73;0.30;;;21.60;96.60;;;;;;6261970;22;20614;-91
2023/08/29 11:36:04;;;;;;;0.75;0.10;;;21.70;95.80;;;;;;6262581;22;20240;-90
2023/08/29 11:38:31;;;;;;;0.60;0.10;;;21.80;95.10;;;;;;6263478;22;20057;-89
2023/08/29 11:40:59;;;;;;;0.75;0.10;;;21.90;94.20;;;;;;6287092;22;20022;-88
2023/08/29 11:43:25;;;;;;;1.83;0.25;;;22.00;94.90;;;;;;6286614;22;20124;-88
2023/08/29 11:45:58;;;;;;;3.20;0.50;;;24.10;95.90;;;;;;6261764;22;20108;-90
2023/08/29 11:48:25;;;;;;;1.90;0.15;;;22.20;94.70;;;;;;6260622;22;20019;-89
2023/08/29 11:50:53;;;;;;;0.55;0.10;;;22.30;94.60;;;;;;6260998;22;20317;-89
2023/08/29 11:53:32;;;;;;;1.27;0.10;;;22.40;94.40;;;;;;6285968;22;20033;-88
2023/08/29 11:56:00;;;;;;;0.93;0.10;;;22.40;93.80;;;;;;6261896;22;20318;-89
2023/08/29 11:58:31;;;;;;;1.50;0.10;;;22.60;93.50;;;;;;6281866;22;20022;-88
2023/08/29 12:00:57;;;;;;;1.77;0.10;;;22.60;93.00;;;;;;6287733;22;20018;-89
2023/08/29 12:03:26;;;;;;;0.60;0.10;;;22.70;93.70;;;;;;6262278;22;20107;-86
2023/08/29 12:05:57;;;;;;;1.38;0.30;;;22.80;94.80;;;;;;6260696;22;20178;-89
2023/08/29 12:08:52;;;;;;;0.60;0.10;;;22.80;94.30;;;;;;6285883;22;20103;-89
2023/08/29 12:11:18;;;;;;;0.98;0.20;;;23.00;93.30;;;;;;6242221;22;20015;-87
2023/08/29 12:14:00;;;;;;;1.30;0.13;;;23.00;92.70;;;;;;6263365;22;20015;-88
2023/08/29 12:16:28;;;;;;;2.38;0.30;;;23.10;92.50;;;;;;6285688;22;20293;-89
2023/08/29 12:19:08;;;;;;;2.45;0.20;;;23.10;91.90;;;;;;6260244;22;20128;-88
2023/08/29 12:21:34;;;;;;;1.17;0.10;;;23.10;91.50;;;;;;6262786;22;20022;-87
2023/08/29 12:24:10;;;;;;;0.85;0.10;;;23.10;91.90;;;;;;6263915;22;20011;-90
2023/08/29 12:26:36;;;;;;;1.92;0.10;;;23.20;92.80;;;;;;6288616;22;20716;-89
2023/08/29 12:29:02;;;;;;;1.20;0.20;;;23.30;92.20;;;;;;6262649;22;21017;-89
2023/08/29 12:31:28;;;;;;;0.68;0.13;;;23.30;91.40;;;;;;6260806;22;20017;-89
2023/08/29 12:33:53;;;;;;;2.15;0.10;;;23.30;91.20;;;;;;6261589;22;20019;-89
2023/08/29 12:36:19;;;;;;;1.02;0.10;;;23.20;91.50;;;;;;6261415;22;20019;-88
2023/08/29 12:38:45;;;;;;;0.70;0.10;;;23.10;91.40;;;;;;6262630;22;20027;-87
2023/08/29 12:41:15;;;;;;;1.58;0.20;;;21.50;91.80;;;;;;6290245;22;20027;-88
2023/08/29 12:43:41;;;;;;;1.50;0.10;;;22.90;92.60;;;;;;6265480;22;20618;-89
2023/08/29 12:46:08;;;;;;;1.10;0.10;;;23.00;92.10;;;;;;6264401;22;20042;-90
2023/08/29 12:48:35;;;;;;;1.13;0.20;;;23.30;93.50;;;;;;6264901;22;20079;-88
2023/08/29 12:51:01;;;;;;;0.77;0.13;;;22.80;92.80;;;;;;6264748;22;20011;-87